This is the latest recevied weather packets stored in our database for station/object W7TRD. If no packets are shown the sender has not sent any weather packets the latest 10 day(s).
| Time | Temp. | Humidity | Pressure | Rain* | Wind** | Luminosity | Snow |
|---|---|---|---|---|---|---|---|
| 1777957652 | 16.11° C | 76% | 1013.1 hPa | 0 mm | - | 0 W/m² | - |
| 1777957351 | 16.11° C | 75% | 1013.1 hPa | 0 mm | - | 0 W/m² | - |
| 1777957046 | 16.67° C | 74% | 1013 hPa | 0 mm | - | 0 W/m² | - |
| 1777956744 | 16.67° C | 74% | 1012.8 hPa | 0 mm | - | 0 W/m² | - |
| 1777956440 | 16.67° C | 74% | 1012.8 hPa | 0 mm | - | 0 W/m² | - |
| 1777956136 | 16.67° C | 73% | 1012.6 hPa | 0 mm | - | 0 W/m² | - |
| 1777955834 | 17.22° C | 72% | 1012.5 hPa | 0 mm | - | 0 W/m² | - |
| 1777955530 | 17.22° C | 72% | 1012.4 hPa | 0 mm | - | 0 W/m² | - |
| 1777955226 | 17.22° C | 72% | 1012.6 hPa | 0 mm | - | 0 W/m² | - |
| 1777954924 | 17.22° C | 71% | 1012.5 hPa | 0 mm | - | 0 W/m² | - |
| 1777954620 | 17.22° C | 72% | 1012.4 hPa | 0 mm | - | 0 W/m² | - |
| 1777954317 | 17.78° C | 71% | 1012.3 hPa | 0 mm | - | 0 W/m² | - |
| 1777953712 | 17.78° C | 70% | 1012.1 hPa | 0 mm | - | 0 W/m² | - |
| 1777953408 | 17.78° C | 70% | 1012.1 hPa | 0 mm | - | 0 W/m² | - |
| 1777943714 | 24.44° C | 56% | 1011 hPa | 0 mm | - | 175 W/m² | - |
| 1777943411 | 25.56° C | 55% | 1011.1 hPa | 0 mm | - | 190 W/m² | - |
| 1777943106 | 25° C | 54% | 1010.8 hPa | 0 mm | - | 202 W/m² | - |
| 1777942500 | 25° C | 54% | 1011.2 hPa | 0 mm | - | 228 W/m² | - |
| 1777942198 | 24.44° C | 56% | 1011.1 hPa | 0 mm | - | 247 W/m² | - |
| 1777941288 | 25° C | 55% | 1011.2 hPa | 0 mm | - | 286 W/m² | - |
| 1777940379 | 25° C | 54% | 1011.5 hPa | 0 mm | - | 331 W/m² | - |
| 1777940076 | 25° C | 53% | 1011.2 hPa | 0 mm | - | 345 W/m² | - |
| 1777939773 | 25° C | 54% | 1011.4 hPa | 0 mm | - | 360 W/m² | - |
| 1777937348 | 24.44° C | 54% | 1011.6 hPa | 0 mm | - | 463 W/m² | - |
| 1777934318 | 23.89° C | 56% | 1012.2 hPa | 0 mm | - | 581 W/m² | - |
* Rain latest hour (hover to see other rain measurements)
** Current wind speed in m/s (hover to see current wind gust speed)